sensor_id;sensor_type;location;lat;lon;timestamp;P1;durP1;ratioP1;P2;durP2;ratioP2
3757;SDS011;1894;51.038;13.692;2023-04-25T00:00:05;4.67;;;2.77;;
3757;SDS011;1894;51.038;13.692;2023-04-25T00:02:37;3.13;;;2.67;;
3757;SDS011;1894;51.038;13.692;2023-04-25T00:05:04;4.53;;;3.20;;
3757;SDS011;1894;51.038;13.692;2023-04-25T00:07:33;3.77;;;2.90;;
3757;SDS011;1894;51.038;13.692;2023-04-25T00:10:01;3.37;;;2.47;;
3757;SDS011;1894;51.038;13.692;2023-04-25T00:12:28;4.07;;;2.80;;
3757;SDS011;1894;51.038;13.692;2023-04-25T00:14:55;3.20;;;2.90;;
3757;SDS011;1894;51.038;13.692;2023-04-25T00:17:26;4.53;;;3.00;;
3757;SDS011;1894;51.038;13.692;2023-04-25T00:19:53;3.60;;;3.13;;
3757;SDS011;1894;51.038;13.692;2023-04-25T00:22:20;3.80;;;2.90;;
3757;SDS011;1894;51.038;13.692;2023-04-25T00:24:48;5.63;;;2.70;;
3757;SDS011;1894;51.038;13.692;2023-04-25T00:27:15;3.37;;;3.07;;
3757;SDS011;1894;51.038;13.692;2023-04-25T00:29:42;5.50;;;3.67;;
3757;SDS011;1894;51.038;13.692;2023-04-25T00:32:09;3.40;;;3.10;;
3757;SDS011;1894;51.038;13.692;2023-04-25T00:34:36;2.90;;;2.60;;
3757;SDS011;1894;51.038;13.692;2023-04-25T00:37:04;5.10;;;3.90;;
3757;SDS011;1894;51.038;13.692;2023-04-25T00:39:32;7.10;;;3.80;;
3757;SDS011;1894;51.038;13.692;2023-04-25T00:41:59;5.67;;;3.47;;
3757;SDS011;1894;51.038;13.692;2023-04-25T00:44:29;6.40;;;3.47;;
3757;SDS011;1894;51.038;13.692;2023-04-25T00:46:58;3.97;;;3.10;;
3757;SDS011;1894;51.038;13.692;2023-04-25T00:49:28;4.03;;;3.63;;
3757;SDS011;1894;51.038;13.692;2023-04-25T00:51:56;4.60;;;3.37;;
3757;SDS011;1894;51.038;13.692;2023-04-25T00:54:23;6.10;;;3.20;;
3757;SDS011;1894;51.038;13.692;2023-04-25T00:56:51;5.83;;;3.80;;
3757;SDS011;1894;51.038;13.692;2023-04-25T00:59:19;6.80;;;3.83;;
3757;SDS011;1894;51.038;13.692;2023-04-25T01:01:47;5.83;;;4.40;;
3757;SDS011;1894;51.038;13.692;2023-04-25T01:04:15;6.20;;;4.20;;
3757;SDS011;1894;51.038;13.692;2023-04-25T01:06:42;6.07;;;4.73;;
3757;SDS011;1894;51.038;13.692;2023-04-25T01:09:09;5.67;;;4.53;;
3757;SDS011;1894;51.038;13.692;2023-04-25T01:11:37;5.53;;;4.67;;
3757;SDS011;1894;51.038;13.692;2023-04-25T01:14:06;6.17;;;4.73;;
3757;SDS011;1894;51.038;13.692;2023-04-25T01:16:34;7.97;;;4.10;;
3757;SDS011;1894;51.038;13.692;2023-04-25T01:19:05;7.40;;;4.70;;
3757;SDS011;1894;51.038;13.692;2023-04-25T01:21:39;9.23;;;4.80;;
3757;SDS011;1894;51.038;13.692;2023-04-25T01:24:06;7.33;;;4.60;;
3757;SDS011;1894;51.038;13.692;2023-04-25T01:26:34;5.73;;;4.33;;
3757;SDS011;1894;51.038;13.692;2023-04-25T01:29:07;7.37;;;4.07;;
3757;SDS011;1894;51.038;13.692;2023-04-25T01:31:34;7.87;;;4.40;;
3757;SDS011;1894;51.038;13.692;2023-04-25T01:34:04;8.27;;;5.03;;
3757;SDS011;1894;51.038;13.692;2023-04-25T01:36:31;7.80;;;4.50;;
3757;SDS011;1894;51.038;13.692;2023-04-25T01:38:59;5.60;;;4.10;;
3757;SDS011;1894;51.038;13.692;2023-04-25T01:41:27;7.00;;;4.67;;
3757;SDS011;1894;51.038;13.692;2023-04-25T01:43:54;12.90;;;5.40;;
3757;SDS011;1894;51.038;13.692;2023-04-25T01:46:22;7.73;;;4.03;;
3757;SDS011;1894;51.038;13.692;2023-04-25T01:48:49;6.57;;;4.80;;
3757;SDS011;1894;51.038;13.692;2023-04-25T01:51:17;6.23;;;4.43;;
3757;SDS011;1894;51.038;13.692;2023-04-25T01:53:44;5.70;;;3.73;;
3757;SDS011;1894;51.038;13.692;2023-04-25T01:56:15;8.67;;;4.77;;
3757;SDS011;1894;51.038;13.692;2023-04-25T01:59:02;8.67;;;4.87;;
3757;SDS011;1894;51.038;13.692;2023-04-25T02:02:10;6.57;;;4.20;;
3757;SDS011;1894;51.038;13.692;2023-04-25T02:04:37;8.00;;;4.87;;
3757;SDS011;1894;51.038;13.692;2023-04-25T02:07:05;9.97;;;4.60;;
3757;SDS011;1894;51.038;13.692;2023-04-25T02:09:47;6.10;;;3.83;;
3757;SDS011;1894;51.038;13.692;2023-04-25T02:12:15;6.43;;;4.90;;
3757;SDS011;1894;51.038;13.692;2023-04-25T02:14:59;7.83;;;5.07;;
3757;SDS011;1894;51.038;13.692;2023-04-25T02:17:56;7.77;;;5.07;;
3757;SDS011;1894;51.038;13.692;2023-04-25T02:20:24;9.17;;;5.00;;
3757;SDS011;1894;51.038;13.692;2023-04-25T02:22:52;7.37;;;4.80;;
3757;SDS011;1894;51.038;13.692;2023-04-25T02:25:19;7.77;;;4.30;;
3757;SDS011;1894;51.038;13.692;2023-04-25T02:27:47;6.87;;;4.40;;
3757;SDS011;1894;51.038;13.692;2023-04-25T02:30:14;10.03;;;4.80;;
3757;SDS011;1894;51.038;13.692;2023-04-25T02:32:42;7.00;;;4.93;;
3757;SDS011;1894;51.038;13.692;2023-04-25T02:35:09;8.00;;;5.30;;
3757;SDS011;1894;51.038;13.692;2023-04-25T02:37:37;10.40;;;5.07;;
3757;SDS011;1894;51.038;13.692;2023-04-25T02:40:06;10.07;;;4.30;;
3757;SDS011;1894;51.038;13.692;2023-04-25T02:42:34;8.70;;;4.80;;
3757;SDS011;1894;51.038;13.692;2023-04-25T02:45:02;6.30;;;4.60;;
3757;SDS011;1894;51.038;13.692;2023-04-25T02:47:30;5.27;;;4.70;;
3757;SDS011;1894;51.038;13.692;2023-04-25T02:49:57;12.13;;;5.37;;
3757;SDS011;1894;51.038;13.692;2023-04-25T02:52:25;8.80;;;4.63;;
3757;SDS011;1894;51.038;13.692;2023-04-25T02:55:00;6.43;;;4.30;;
3757;SDS011;1894;51.038;13.692;2023-04-25T02:57:28;11.20;;;5.07;;
3757;SDS011;1894;51.038;13.692;2023-04-25T03:00:03;6.07;;;4.77;;
3757;SDS011;1894;51.038;13.692;2023-04-25T03:02:40;10.57;;;5.17;;
3757;SDS011;1894;51.038;13.692;2023-04-25T03:05:07;6.00;;;4.47;;
3757;SDS011;1894;51.038;13.692;2023-04-25T03:07:36;6.30;;;4.90;;
3757;SDS011;1894;51.038;13.692;2023-04-25T03:10:03;12.33;;;5.17;;
3757;SDS011;1894;51.038;13.692;2023-04-25T03:12:33;10.17;;;6.33;;
3757;SDS011;1894;51.038;13.692;2023-04-25T03:15:00;6.43;;;4.63;;
3757;SDS011;1894;51.038;13.692;2023-04-25T03:17:27;7.27;;;4.40;;
3757;SDS011;1894;51.038;13.692;2023-04-25T03:19:55;7.13;;;5.50;;
3757;SDS011;1894;51.038;13.692;2023-04-25T03:22:22;8.77;;;5.60;;
3757;SDS011;1894;51.038;13.692;2023-04-25T03:24:51;6.60;;;5.20;;
3757;SDS011;1894;51.038;13.692;2023-04-25T03:27:18;8.57;;;5.70;;
3757;SDS011;1894;51.038;13.692;2023-04-25T03:29:46;8.77;;;4.70;;
3757;SDS011;1894;51.038;13.692;2023-04-25T03:32:13;10.07;;;5.57;;
3757;SDS011;1894;51.038;13.692;2023-04-25T03:34:41;6.57;;;5.87;;
3757;SDS011;1894;51.038;13.692;2023-04-25T03:37:08;8.90;;;5.93;;
3757;SDS011;1894;51.038;13.692;2023-04-25T03:39:37;9.60;;;5.20;;
3757;SDS011;1894;51.038;13.692;2023-04-25T03:42:05;6.97;;;5.40;;
3757;SDS011;1894;51.038;13.692;2023-04-25T03:44:32;9.00;;;5.80;;
3757;SDS011;1894;51.038;13.692;2023-04-25T03:47:00;10.10;;;6.20;;
3757;SDS011;1894;51.038;13.692;2023-04-25T03:49:28;8.30;;;6.43;;
3757;SDS011;1894;51.038;13.692;2023-04-25T03:51:59;6.90;;;5.50;;
3757;SDS011;1894;51.038;13.692;2023-04-25T03:54:29;8.13;;;6.30;;
3757;SDS011;1894;51.038;13.692;2023-04-25T03:57:03;15.70;;;7.20;;
3757;SDS011;1894;51.038;13.692;2023-04-25T03:59:33;7.70;;;5.50;;
3757;SDS011;1894;51.038;13.692;2023-04-25T04:02:01;7.80;;;5.70;;
3757;SDS011;1894;51.038;13.692;2023-04-25T04:04:31;9.27;;;5.90;;
3757;SDS011;1894;51.038;13.692;2023-04-25T04:07:00;9.50;;;6.57;;
3757;SDS011;1894;51.038;13.692;2023-04-25T04:09:30;9.87;;;6.00;;
3757;SDS011;1894;51.038;13.692;2023-04-25T04:11:59;10.10;;;5.90;;
3757;SDS011;1894;51.038;13.692;2023-04-25T04:14:29;8.80;;;6.13;;
3757;SDS011;1894;51.038;13.692;2023-04-25T04:17:07;13.63;;;5.83;;
3757;SDS011;1894;51.038;13.692;2023-04-25T04:19:36;6.47;;;5.70;;
3757;SDS011;1894;51.038;13.692;2023-04-25T04:22:10;8.90;;;6.30;;
3757;SDS011;1894;51.038;13.692;2023-04-25T04:24:39;12.53;;;6.47;;
3757;SDS011;1894;51.038;13.692;2023-04-25T04:27:07;10.50;;;6.20;;
3757;SDS011;1894;51.038;13.692;2023-04-25T04:29:44;8.10;;;6.40;;
3757;SDS011;1894;51.038;13.692;2023-04-25T04:32:22;9.40;;;6.20;;
3757;SDS011;1894;51.038;13.692;2023-04-25T04:34:52;7.70;;;6.20;;
3757;SDS011;1894;51.038;13.692;2023-04-25T04:37:22;7.90;;;6.57;;
3757;SDS011;1894;51.038;13.692;2023-04-25T04:39:50;10.83;;;6.47;;
3757;SDS011;1894;51.038;13.692;2023-04-25T04:42:30;10.57;;;6.50;;
3757;SDS011;1894;51.038;13.692;2023-04-25T04:44:57;7.70;;;6.27;;
3757;SDS011;1894;51.038;13.692;2023-04-25T04:47:39;12.30;;;5.87;;
3757;SDS011;1894;51.038;13.692;2023-04-25T04:50:15;6.67;;;5.63;;
3757;SDS011;1894;51.038;13.692;2023-04-25T04:53:03;10.40;;;6.27;;
3757;SDS011;1894;51.038;13.692;2023-04-25T04:55:40;9.60;;;7.50;;
3757;SDS011;1894;51.038;13.692;2023-04-25T04:58:25;8.70;;;6.53;;
3757;SDS011;1894;51.038;13.692;2023-04-25T05:01:15;9.23;;;6.73;;
3757;SDS011;1894;51.038;13.692;2023-04-25T05:04:02;7.67;;;6.47;;
3757;SDS011;1894;51.038;13.692;2023-04-25T05:06:45;8.80;;;5.80;;
3757;SDS011;1894;51.038;13.692;2023-04-25T05:09:33;12.27;;;5.67;;
3757;SDS011;1894;51.038;13.692;2023-04-25T05:12:38;10.43;;;6.73;;
3757;SDS011;1894;51.038;13.692;2023-04-25T05:15:30;9.87;;;5.50;;
3757;SDS011;1894;51.038;13.692;2023-04-25T05:18:15;11.47;;;6.03;;
3757;SDS011;1894;51.038;13.692;2023-04-25T05:21:06;8.67;;;5.27;;
3757;SDS011;1894;51.038;13.692;2023-04-25T05:23:38;7.27;;;5.03;;
3757;SDS011;1894;51.038;13.692;2023-04-25T05:26:31;8.37;;;5.00;;
3757;SDS011;1894;51.038;13.692;2023-04-25T05:29:21;7.10;;;4.53;;
3757;SDS011;1894;51.038;13.692;2023-04-25T05:32:27;8.07;;;5.17;;
3757;SDS011;1894;51.038;13.692;2023-04-25T05:34:55;6.50;;;5.23;;
3757;SDS011;1894;51.038;13.692;2023-04-25T05:37:34;6.10;;;4.87;;
3757;SDS011;1894;51.038;13.692;2023-04-25T05:40:09;6.53;;;4.27;;
3757;SDS011;1894;51.038;13.692;2023-04-25T05:42:54;9.67;;;5.77;;
3757;SDS011;1894;51.038;13.692;2023-04-25T05:45:45;5.40;;;4.53;;
3757;SDS011;1894;51.038;13.692;2023-04-25T05:48:30;6.80;;;4.57;;
3757;SDS011;1894;51.038;13.692;2023-04-25T05:51:08;6.00;;;4.00;;
3757;SDS011;1894;51.038;13.692;2023-04-25T05:54:04;9.80;;;4.80;;
3757;SDS011;1894;51.038;13.692;2023-04-25T05:56:33;10.93;;;5.70;;
3757;SDS011;1894;51.038;13.692;2023-04-25T05:59:00;8.90;;;4.80;;
3757;SDS011;1894;51.038;13.692;2023-04-25T06:01:27;11.10;;;5.10;;
3757;SDS011;1894;51.038;13.692;2023-04-25T06:03:54;8.23;;;4.60;;
3757;SDS011;1894;51.038;13.692;2023-04-25T06:06:22;10.30;;;5.43;;
3757;SDS011;1894;51.038;13.692;2023-04-25T06:08:49;10.73;;;6.33;;
3757;SDS011;1894;51.038;13.692;2023-04-25T06:11:17;10.37;;;5.57;;
3757;SDS011;1894;51.038;13.692;2023-04-25T06:13:45;7.63;;;5.73;;
3757;SDS011;1894;51.038;13.692;2023-04-25T06:16:14;9.87;;;6.10;;
3757;SDS011;1894;51.038;13.692;2023-04-25T06:18:41;9.13;;;6.20;;
3757;SDS011;1894;51.038;13.692;2023-04-25T06:21:08;14.33;;;7.33;;
3757;SDS011;1894;51.038;13.692;2023-04-25T06:23:36;9.20;;;5.53;;
3757;SDS011;1894;51.038;13.692;2023-04-25T06:26:06;13.80;;;6.10;;
3757;SDS011;1894;51.038;13.692;2023-04-25T06:28:36;13.23;;;6.77;;
3757;SDS011;1894;51.038;13.692;2023-04-25T06:31:03;10.23;;;6.10;;
3757;SDS011;1894;51.038;13.692;2023-04-25T06:33:31;12.63;;;5.97;;
3757;SDS011;1894;51.038;13.692;2023-04-25T06:35:59;10.30;;;7.33;;
3757;SDS011;1894;51.038;13.692;2023-04-25T06:38:27;20.80;;;7.00;;
3757;SDS011;1894;51.038;13.692;2023-04-25T06:40:56;11.87;;;6.30;;
3757;SDS011;1894;51.038;13.692;2023-04-25T06:43:25;14.00;;;7.07;;
3757;SDS011;1894;51.038;13.692;2023-04-25T06:46:21;12.60;;;6.33;;
3757;SDS011;1894;51.038;13.692;2023-04-25T06:48:49;11.90;;;6.60;;
3757;SDS011;1894;51.038;13.692;2023-04-25T06:51:18;7.90;;;6.60;;
3757;SDS011;1894;51.038;13.692;2023-04-25T06:53:48;7.33;;;6.17;;
3757;SDS011;1894;51.038;13.692;2023-04-25T06:56:24;10.90;;;6.40;;
3757;SDS011;1894;51.038;13.692;2023-04-25T06:58:59;11.20;;;6.17;;
3757;SDS011;1894;51.038;13.692;2023-04-25T07:01:35;12.30;;;7.37;;
3757;SDS011;1894;51.038;13.692;2023-04-25T07:04:08;10.70;;;6.03;;
3757;SDS011;1894;51.038;13.692;2023-04-25T07:06:40;8.93;;;6.00;;
3757;SDS011;1894;51.038;13.692;2023-04-25T07:09:11;14.50;;;7.90;;
3757;SDS011;1894;51.038;13.692;2023-04-25T07:11:41;16.30;;;6.60;;
3757;SDS011;1894;51.038;13.692;2023-04-25T07:14:08;12.23;;;5.90;;
3757;SDS011;1894;51.038;13.692;2023-04-25T07:16:35;8.20;;;5.40;;
3757;SDS011;1894;51.038;13.692;2023-04-25T07:19:03;13.40;;;5.17;;
3757;SDS011;1894;51.038;13.692;2023-04-25T07:21:30;9.17;;;5.60;;
3757;SDS011;1894;51.038;13.692;2023-04-25T07:24:00;12.30;;;5.60;;
3757;SDS011;1894;51.038;13.692;2023-04-25T07:26:32;7.53;;;5.07;;
3757;SDS011;1894;51.038;13.692;2023-04-25T07:29:17;8.37;;;5.60;;
3757;SDS011;1894;51.038;13.692;2023-04-25T07:31:44;13.53;;;5.20;;
3757;SDS011;1894;51.038;13.692;2023-04-25T07:34:12;7.10;;;4.37;;
3757;SDS011;1894;51.038;13.692;2023-04-25T07:36:43;8.03;;;4.97;;
3757;SDS011;1894;51.038;13.692;2023-04-25T07:39:11;6.33;;;4.83;;
3757;SDS011;1894;51.038;13.692;2023-04-25T07:41:39;6.80;;;3.87;;
3757;SDS011;1894;51.038;13.692;2023-04-25T07:44:11;11.47;;;4.17;;
3757;SDS011;1894;51.038;13.692;2023-04-25T07:46:39;11.30;;;5.80;;
3757;SDS011;1894;51.038;13.692;2023-04-25T07:49:07;6.27;;;4.70;;
3757;SDS011;1894;51.038;13.692;2023-04-25T07:51:35;6.20;;;5.20;;
3757;SDS011;1894;51.038;13.692;2023-04-25T07:54:07;7.17;;;4.40;;
3757;SDS011;1894;51.038;13.692;2023-04-25T07:56:40;4.63;;;3.10;;
3757;SDS011;1894;51.038;13.692;2023-04-25T07:59:18;10.63;;;4.50;;
3757;SDS011;1894;51.038;13.692;2023-04-25T08:01:47;3.40;;;3.10;;
3757;SDS011;1894;51.038;13.692;2023-04-25T08:04:16;11.00;;;3.70;;
3757;SDS011;1894;51.038;13.692;2023-04-25T08:06:54;4.00;;;3.03;;
3757;SDS011;1894;51.038;13.692;2023-04-25T08:09:25;11.13;;;5.37;;
3757;SDS011;1894;51.038;13.692;2023-04-25T08:11:54;6.97;;;3.23;;
3757;SDS011;1894;51.038;13.692;2023-04-25T08:14:26;8.83;;;4.17;;
3757;SDS011;1894;51.038;13.692;2023-04-25T08:16:55;6.17;;;4.23;;
3757;SDS011;1894;51.038;13.692;2023-04-25T08:19:23;4.53;;;3.90;;
3757;SDS011;1894;51.038;13.692;2023-04-25T08:21:51;6.57;;;3.20;;
3757;SDS011;1894;51.038;13.692;2023-04-25T08:24:25;4.17;;;2.67;;
3757;SDS011;1894;51.038;13.692;2023-04-25T08:26:53;9.70;;;2.90;;
3757;SDS011;1894;51.038;13.692;2023-04-25T08:29:24;10.07;;;3.20;;
3757;SDS011;1894;51.038;13.692;2023-04-25T08:31:52;7.23;;;3.30;;
3757;SDS011;1894;51.038;13.692;2023-04-25T08:34:20;7.93;;;3.83;;
3757;SDS011;1894;51.038;13.692;2023-04-25T08:36:48;4.70;;;3.37;;
3757;SDS011;1894;51.038;13.692;2023-04-25T08:39:26;8.97;;;4.40;;
3757;SDS011;1894;51.038;13.692;2023-04-25T08:42:11;6.03;;;3.07;;
3757;SDS011;1894;51.038;13.692;2023-04-25T08:44:39;3.67;;;3.00;;
3757;SDS011;1894;51.038;13.692;2023-04-25T08:47:06;3.50;;;2.70;;
3757;SDS011;1894;51.038;13.692;2023-04-25T08:49:42;6.00;;;3.80;;
3757;SDS011;1894;51.038;13.692;2023-04-25T08:52:13;6.80;;;3.93;;
3757;SDS011;1894;51.038;13.692;2023-04-25T08:54:44;7.90;;;4.60;;
3757;SDS011;1894;51.038;13.692;2023-04-25T08:57:17;10.00;;;5.27;;
3757;SDS011;1894;51.038;13.692;2023-04-25T08:59:47;8.17;;;5.53;;
3757;SDS011;1894;51.038;13.692;2023-04-25T09:02:16;7.27;;;4.80;;
3757;SDS011;1894;51.038;13.692;2023-04-25T09:04:48;5.80;;;4.63;;
3757;SDS011;1894;51.038;13.692;2023-04-25T09:07:16;11.00;;;4.53;;
3757;SDS011;1894;51.038;13.692;2023-04-25T09:09:47;8.47;;;4.97;;
3757;SDS011;1894;51.038;13.692;2023-04-25T09:12:20;8.17;;;4.77;;
3757;SDS011;1894;51.038;13.692;2023-04-25T09:15:01;12.70;;;5.20;;
3757;SDS011;1894;51.038;13.692;2023-04-25T09:18:07;12.27;;;5.17;;
3757;SDS011;1894;51.038;13.692;2023-04-25T09:20:42;8.97;;;5.13;;
3757;SDS011;1894;51.038;13.692;2023-04-25T09:23:30;10.00;;;5.33;;
3757;SDS011;1894;51.038;13.692;2023-04-25T09:25:58;11.67;;;5.77;;
3757;SDS011;1894;51.038;13.692;2023-04-25T09:28:25;5.53;;;3.60;;
3757;SDS011;1894;51.038;13.692;2023-04-25T09:30:57;4.30;;;3.17;;
3757;SDS011;1894;51.038;13.692;2023-04-25T09:33:33;7.53;;;4.53;;
3757;SDS011;1894;51.038;13.692;2023-04-25T09:36:07;9.13;;;4.40;;
3757;SDS011;1894;51.038;13.692;2023-04-25T09:38:45;4.70;;;4.20;;
3757;SDS011;1894;51.038;13.692;2023-04-25T09:41:24;5.97;;;4.10;;
3757;SDS011;1894;51.038;13.692;2023-04-25T09:43:56;6.67;;;5.03;;
3757;SDS011;1894;51.038;13.692;2023-04-25T09:46:35;11.70;;;6.27;;
3757;SDS011;1894;51.038;13.692;2023-04-25T09:49:07;11.10;;;4.70;;
3757;SDS011;1894;51.038;13.692;2023-04-25T09:51:55;11.03;;;5.20;;
3757;SDS011;1894;51.038;13.692;2023-04-25T09:54:49;6.67;;;5.57;;
3757;SDS011;1894;51.038;13.692;2023-04-25T09:57:24;9.60;;;5.33;;
3757;SDS011;1894;51.038;13.692;2023-04-25T09:59:54;9.10;;;5.17;;
3757;SDS011;1894;51.038;13.692;2023-04-25T10:02:24;8.53;;;5.50;;
3757;SDS011;1894;51.038;13.692;2023-04-25T10:04:59;13.53;;;5.40;;
3757;SDS011;1894;51.038;13.692;2023-04-25T10:07:36;5.20;;;4.70;;
3757;SDS011;1894;51.038;13.692;2023-04-25T10:10:12;6.13;;;3.80;;
3757;SDS011;1894;51.038;13.692;2023-04-25T10:12:40;12.83;;;4.43;;
3757;SDS011;1894;51.038;13.692;2023-04-25T10:15:10;5.50;;;4.13;;
3757;SDS011;1894;51.038;13.692;2023-04-25T10:17:38;9.50;;;4.10;;
3757;SDS011;1894;51.038;13.692;2023-04-25T10:20:06;5.50;;;3.50;;
3757;SDS011;1894;51.038;13.692;2023-04-25T10:22:41;8.43;;;4.80;;
3757;SDS011;1894;51.038;13.692;2023-04-25T10:25:11;6.50;;;4.77;;
3757;SDS011;1894;51.038;13.692;2023-04-25T10:27:39;9.77;;;4.87;;
3757;SDS011;1894;51.038;13.692;2023-04-25T10:30:10;7.73;;;4.73;;
3757;SDS011;1894;51.038;13.692;2023-04-25T10:32:42;17.93;;;5.10;;
3757;SDS011;1894;51.038;13.692;2023-04-25T10:35:17;8.67;;;5.63;;
3757;SDS011;1894;51.038;13.692;2023-04-25T10:40:29;7.50;;;5.30;;
3757;SDS011;1894;51.038;13.692;2023-04-25T10:45:59;6.97;;;4.87;;
3757;SDS011;1894;51.038;13.692;2023-04-25T10:48:27;9.30;;;4.80;;
3757;SDS011;1894;51.038;13.692;2023-04-25T10:51:08;6.70;;;4.50;;
3757;SDS011;1894;51.038;13.692;2023-04-25T10:53:43;8.73;;;5.93;;
3757;SDS011;1894;51.038;13.692;2023-04-25T10:59:12;18.67;;;6.00;;
3757;SDS011;1894;51.038;13.692;2023-04-25T11:01:48;11.37;;;6.80;;
3757;SDS011;1894;51.038;13.692;2023-04-25T11:04:23;10.87;;;7.10;;
3757;SDS011;1894;51.038;13.692;2023-04-25T11:07:07;10.27;;;6.30;;
3757;SDS011;1894;51.038;13.692;2023-04-25T11:09:55;8.30;;;5.83;;
3757;SDS011;1894;51.038;13.692;2023-04-25T11:12:24;9.30;;;5.30;;
3757;SDS011;1894;51.038;13.692;2023-04-25T11:14:57;7.23;;;5.30;;
3757;SDS011;1894;51.038;13.692;2023-04-25T11:17:27;7.77;;;5.30;;
3757;SDS011;1894;51.038;13.692;2023-04-25T11:19:56;11.60;;;5.13;;
3757;SDS011;1894;51.038;13.692;2023-04-25T11:22:23;12.90;;;4.67;;
3757;SDS011;1894;51.038;13.692;2023-04-25T11:24:51;8.63;;;3.53;;
3757;SDS011;1894;51.038;13.692;2023-04-25T11:27:18;3.90;;;2.40;;
3757;SDS011;1894;51.038;13.692;2023-04-25T11:29:45;7.43;;;3.60;;
3757;SDS011;1894;51.038;13.692;2023-04-25T11:32:15;9.20;;;2.63;;
3757;SDS011;1894;51.038;13.692;2023-04-25T11:34:46;10.93;;;2.10;;
3757;SDS011;1894;51.038;13.692;2023-04-25T11:37:13;4.00;;;2.40;;
3757;SDS011;1894;51.038;13.692;2023-04-25T11:39:44;6.83;;;1.87;;
3757;SDS011;1894;51.038;13.692;2023-04-25T11:42:14;5.43;;;2.57;;
3757;SDS011;1894;51.038;13.692;2023-04-25T11:44:41;4.40;;;1.80;;
3757;SDS011;1894;51.038;13.692;2023-04-25T11:47:09;3.67;;;2.17;;
3757;SDS011;1894;51.038;13.692;2023-04-25T11:49:36;10.13;;;3.20;;
3757;SDS011;1894;51.038;13.692;2023-04-25T11:52:05;6.40;;;1.90;;
3757;SDS011;1894;51.038;13.692;2023-04-25T11:54:37;7.30;;;3.23;;
3757;SDS011;1894;51.038;13.692;2023-04-25T11:57:04;5.60;;;2.77;;
3757;SDS011;1894;51.038;13.692;2023-04-25T11:59:31;7.43;;;3.70;;
3757;SDS011;1894;51.038;13.692;2023-04-25T12:01:59;11.13;;;4.70;;
3757;SDS011;1894;51.038;13.692;2023-04-25T12:04:29;8.00;;;3.07;;
3757;SDS011;1894;51.038;13.692;2023-04-25T12:06:59;7.73;;;2.80;;
3757;SDS011;1894;51.038;13.692;2023-04-25T12:09:29;6.77;;;2.30;;
3757;SDS011;1894;51.038;13.692;2023-04-25T12:11:58;6.80;;;2.37;;
3757;SDS011;1894;51.038;13.692;2023-04-25T12:14:31;6.70;;;2.40;;
3757;SDS011;1894;51.038;13.692;2023-04-25T12:17:02;6.97;;;2.80;;
3757;SDS011;1894;51.038;13.692;2023-04-25T12:19:36;5.13;;;2.60;;
3757;SDS011;1894;51.038;13.692;2023-04-25T12:22:22;10.47;;;3.23;;
3757;SDS011;1894;51.038;13.692;2023-04-25T12:24:51;8.20;;;2.50;;
3757;SDS011;1894;51.038;13.692;2023-04-25T12:27:20;6.20;;;2.43;;
3757;SDS011;1894;51.038;13.692;2023-04-25T12:29:54;8.47;;;2.37;;
3757;SDS011;1894;51.038;13.692;2023-04-25T12:32:23;7.87;;;2.77;;
3757;SDS011;1894;51.038;13.692;2023-04-25T12:34:51;9.80;;;2.93;;
3757;SDS011;1894;51.038;13.692;2023-04-25T12:37:18;5.00;;;2.30;;
3757;SDS011;1894;51.038;13.692;2023-04-25T12:39:46;8.03;;;2.60;;
3757;SDS011;1894;51.038;13.692;2023-04-25T12:42:13;11.87;;;2.90;;
3757;SDS011;1894;51.038;13.692;2023-04-25T12:44:40;8.00;;;2.73;;
3757;SDS011;1894;51.038;13.692;2023-04-25T12:47:09;8.90;;;3.20;;
3757;SDS011;1894;51.038;13.692;2023-04-25T12:49:36;9.00;;;3.00;;
3757;SDS011;1894;51.038;13.692;2023-04-25T12:52:04;11.53;;;3.17;;
3757;SDS011;1894;51.038;13.692;2023-04-25T12:54:31;9.43;;;3.37;;
3757;SDS011;1894;51.038;13.692;2023-04-25T12:56:58;10.90;;;3.00;;
3757;SDS011;1894;51.038;13.692;2023-04-25T12:59:25;10.03;;;3.80;;
3757;SDS011;1894;51.038;13.692;2023-04-25T13:01:53;13.17;;;4.10;;
3757;SDS011;1894;51.038;13.692;2023-04-25T13:04:20;10.37;;;3.80;;
3757;SDS011;1894;51.038;13.692;2023-04-25T13:06:47;15.37;;;4.57;;
3757;SDS011;1894;51.038;13.692;2023-04-25T13:09:15;16.43;;;4.27;;
3757;SDS011;1894;51.038;13.692;2023-04-25T13:11:42;9.60;;;4.17;;
3757;SDS011;1894;51.038;13.692;2023-04-25T13:14:09;12.10;;;5.10;;
3757;SDS011;1894;51.038;13.692;2023-04-25T13:16:37;6.30;;;4.27;;
3757;SDS011;1894;51.038;13.692;2023-04-25T13:19:04;9.10;;;4.13;;
3757;SDS011;1894;51.038;13.692;2023-04-25T13:21:34;6.27;;;3.63;;
3757;SDS011;1894;51.038;13.692;2023-04-25T13:24:01;18.00;;;4.13;;
3757;SDS011;1894;51.038;13.692;2023-04-25T13:26:28;17.53;;;5.50;;
3757;SDS011;1894;51.038;13.692;2023-04-25T13:28:55;15.50;;;4.63;;
3757;SDS011;1894;51.038;13.692;2023-04-25T13:31:23;18.40;;;4.10;;
3757;SDS011;1894;51.038;13.692;2023-04-25T13:33:51;6.40;;;3.13;;
3757;SDS011;1894;51.038;13.692;2023-04-25T13:36:18;13.40;;;4.43;;
3757;SDS011;1894;51.038;13.692;2023-04-25T13:38:46;16.67;;;3.70;;
3757;SDS011;1894;51.038;13.692;2023-04-25T13:41:15;16.80;;;5.90;;
3757;SDS011;1894;51.038;13.692;2023-04-25T13:43:46;9.63;;;3.40;;
3757;SDS011;1894;51.038;13.692;2023-04-25T13:46:14;13.23;;;4.60;;
3757;SDS011;1894;51.038;13.692;2023-04-25T13:49:02;9.60;;;3.40;;
3757;SDS011;1894;51.038;13.692;2023-04-25T13:51:38;9.20;;;3.87;;
3757;SDS011;1894;51.038;13.692;2023-04-25T13:54:05;9.73;;;4.10;;
3757;SDS011;1894;51.038;13.692;2023-04-25T13:56:32;15.83;;;4.40;;
3757;SDS011;1894;51.038;13.692;2023-04-25T13:59:00;11.43;;;3.90;;
3757;SDS011;1894;51.038;13.692;2023-04-25T14:01:27;15.33;;;4.20;;
3757;SDS011;1894;51.038;13.692;2023-04-25T14:03:57;11.93;;;3.47;;
3757;SDS011;1894;51.038;13.692;2023-04-25T14:06:24;15.77;;;4.70;;
3757;SDS011;1894;51.038;13.692;2023-04-25T14:08:51;12.50;;;3.30;;
3757;SDS011;1894;51.038;13.692;2023-04-25T14:11:18;22.53;;;4.40;;
3757;SDS011;1894;51.038;13.692;2023-04-25T14:13:46;13.87;;;3.87;;
3757;SDS011;1894;51.038;13.692;2023-04-25T14:16:15;13.87;;;3.50;;
3757;SDS011;1894;51.038;13.692;2023-04-25T14:18:43;18.83;;;5.70;;
3757;SDS011;1894;51.038;13.692;2023-04-25T14:21:10;10.50;;;3.60;;
3757;SDS011;1894;51.038;13.692;2023-04-25T14:23:37;9.67;;;3.60;;
3757;SDS011;1894;51.038;13.692;2023-04-25T14:26:04;13.33;;;4.23;;
3757;SDS011;1894;51.038;13.692;2023-04-25T14:28:32;17.17;;;4.60;;
3757;SDS011;1894;51.038;13.692;2023-04-25T14:30:59;9.03;;;3.60;;
3757;SDS011;1894;51.038;13.692;2023-04-25T14:33:27;17.27;;;4.10;;
3757;SDS011;1894;51.038;13.692;2023-04-25T14:35:54;10.53;;;3.87;;
3757;SDS011;1894;51.038;13.692;2023-04-25T14:38:22;11.23;;;4.20;;
3757;SDS011;1894;51.038;13.692;2023-04-25T14:40:51;9.93;;;3.50;;
3757;SDS011;1894;51.038;13.692;2023-04-25T14:43:20;14.10;;;3.63;;
3757;SDS011;1894;51.038;13.692;2023-04-25T14:45:47;15.20;;;4.13;;
3757;SDS011;1894;51.038;13.692;2023-04-25T14:48:14;16.33;;;4.30;;
3757;SDS011;1894;51.038;13.692;2023-04-25T14:50:42;12.80;;;3.73;;
3757;SDS011;1894;51.038;13.692;2023-04-25T14:53:09;13.20;;;3.90;;
3757;SDS011;1894;51.038;13.692;2023-04-25T14:55:37;10.83;;;4.00;;
3757;SDS011;1894;51.038;13.692;2023-04-25T14:58:04;9.00;;;3.87;;
3757;SDS011;1894;51.038;13.692;2023-04-25T15:00:32;14.77;;;4.00;;
3757;SDS011;1894;51.038;13.692;2023-04-25T15:02:59;6.27;;;3.07;;
3757;SDS011;1894;51.038;13.692;2023-04-25T15:05:27;10.23;;;4.00;;
3757;SDS011;1894;51.038;13.692;2023-04-25T15:07:54;10.63;;;3.67;;
3757;SDS011;1894;51.038;13.692;2023-04-25T15:10:21;17.07;;;5.27;;
3757;SDS011;1894;51.038;13.692;2023-04-25T15:12:49;17.00;;;4.00;;
3757;SDS011;1894;51.038;13.692;2023-04-25T15:15:16;11.97;;;3.70;;
3757;SDS011;1894;51.038;13.692;2023-04-25T15:17:52;12.50;;;4.00;;
3757;SDS011;1894;51.038;13.692;2023-04-25T15:20:24;9.20;;;3.10;;
3757;SDS011;1894;51.038;13.692;2023-04-25T15:22:51;17.43;;;3.60;;
3757;SDS011;1894;51.038;13.692;2023-04-25T15:25:19;7.30;;;2.90;;
3757;SDS011;1894;51.038;13.692;2023-04-25T15:27:46;14.63;;;2.63;;
3757;SDS011;1894;51.038;13.692;2023-04-25T15:30:15;12.10;;;2.70;;